Time;durP1;ratioP1;P1;durP2;ratioP2;P2;SDS_P1;SDS_P2;PMS_P1;PMS_P2;Temp;Humidity;BMP_temperature;BMP_pressure;BME280_temperature;BME280_humidity;BME280_pressure;Samples;Min_cycle;Max_cycle;Signal;HPM_P1;HPM_P2
2023/10/15 00:00:00;;;;;;;7.53;3.00;;;;;;;;;;693569;28;4430;-62
2023/10/15 00:00:21;;;;;;;6.83;2.90;;;;;;;;;;692779;28;1377;-62
2023/10/15 00:00:41;;;;;;;8.27;3.05;;;;;;;;;;692702;28;927;-62
2023/10/15 00:01:05;;;;;;;7.77;3.17;;;;;;;;;;692992;28;1215;-62
2023/10/15 00:01:25;;;;;;;6.30;3.03;;;;;;;;;;693121;28;22960;-61
2023/10/15 00:01:46;;;;;;;6.68;3.20;;;;;;;;;;693735;28;828;-61
2023/10/15 00:02:06;;;;;;;6.77;2.63;;;;;;;;;;692583;28;2466;-62
2023/10/15 00:02:27;;;;;;;7.90;3.10;;;;;;;;;;688091;28;1386;-62
2023/10/15 00:02:48;;;;;;;6.68;2.95;;;;;;;;;;687622;28;1027;-60
2023/10/15 00:03:08;;;;;;;7.10;2.90;;;;;;;;;;687251;28;4412;-62
2023/10/15 00:03:29;;;;;;;7.33;2.77;;;;;;;;;;687992;28;873;-62
2023/10/15 00:03:49;;;;;;;7.13;3.13;;;;;;;;;;688550;28;844;-61
2023/10/15 00:04:09;;;;;;;7.57;3.00;;;;;;;;;;688844;28;2019;-62
2023/10/15 00:04:30;;;;;;;6.20;2.60;;;;;;;;;;693500;28;1496;-62
2023/10/15 00:04:50;;;;;;;7.63;3.10;;;;;;;;;;692732;28;900;-61
2023/10/15 00:05:12;;;;;;;8.33;2.87;;;;;;;;;;691983;28;1704;-62
2023/10/15 00:05:32;;;;;;;6.72;2.83;;;;;;;;;;693954;28;838;-62
2023/10/15 00:05:53;;;;;;;6.73;2.80;;;;;;;;;;691214;28;1107;-62
2023/10/15 00:06:13;;;;;;;8.73;2.72;;;;;;;;;;691955;28;4446;-61
2023/10/15 00:06:33;;;;;;;7.73;3.17;;;;;;;;;;689171;28;1322;-63
2023/10/15 00:06:53;;;;;;;7.47;3.13;;;;;;;;;;688656;28;964;-61
2023/10/15 00:07:14;;;;;;;7.13;2.80;;;;;;;;;;687501;28;1675;-62
2023/10/15 00:07:34;;;;;;;7.07;2.80;;;;;;;;;;688508;28;1303;-62
2023/10/15 00:07:55;;;;;;;6.73;2.67;;;;;;;;;;688487;28;1351;-62
2023/10/15 00:08:15;;;;;;;7.22;2.65;;;;;;;;;;687199;28;2447;-62
2023/10/15 00:08:36;;;;;;;5.55;2.53;;;;;;;;;;692615;28;836;-62
2023/10/15 00:08:57;;;;;;;7.03;2.77;;;;;;;;;;691195;28;852;-62
2023/10/15 00:09:17;;;;;;;5.18;2.63;;;;;;;;;;688187;28;4454;-61
2023/10/15 00:09:39;;;;;;;6.20;2.53;;;;;;;;;;689087;28;1478;-61
2023/10/15 00:10:00;;;;;;;5.93;2.50;;;;;;;;;;687423;28;995;-62
2023/10/15 00:10:21;;;;;;;6.50;2.50;;;;;;;;;;688585;28;919;-61
2023/10/15 00:10:42;;;;;;;7.35;2.53;;;;;;;;;;688698;28;999;-62
2023/10/15 00:11:02;;;;;;;6.67;2.47;;;;;;;;;;689565;28;2366;-61
2023/10/15 00:11:22;;;;;;;5.95;2.50;;;;;;;;;;691708;28;820;-62
2023/10/15 00:11:43;;;;;;;6.97;2.40;;;;;;;;;;691440;28;859;-61
2023/10/15 00:12:03;;;;;;;6.07;2.50;;;;;;;;;;690621;28;4463;-62
2023/10/15 00:12:23;;;;;;;6.50;2.50;;;;;;;;;;693260;28;1097;-63
2023/10/15 00:12:46;;;;;;;6.57;2.63;;;;;;;;;;693215;28;1311;-63
2023/10/15 00:13:06;;;;;;;8.18;2.35;;;;;;;;;;688143;28;1731;-63
2023/10/15 00:13:26;;;;;;;7.80;2.50;;;;;;;;;;690921;28;837;-62
2023/10/15 00:13:47;;;;;;;6.47;2.80;;;;;;;;;;690243;28;829;-63
2023/10/15 00:14:07;;;;;;;6.13;2.50;;;;;;;;;;687284;28;1784;-61
2023/10/15 00:14:27;;;;;;;6.13;2.47;;;;;;;;;;690071;28;1478;-62
2023/10/15 00:14:48;;;;;;;6.27;2.70;;;;;;;;;;690509;28;904;-63
2023/10/15 00:15:14;;;;;;;5.27;2.33;;;;;;;;;;689274;28;4445;-63
2023/10/15 00:15:35;;;;;;;5.82;2.40;;;;;;;;;;687164;28;70112;-63
2023/10/15 00:15:56;;;;;;;8.07;2.57;;;;;;;;;;688615;28;1259;-62
2023/10/15 00:16:20;;;;;;;7.22;2.47;;;;;;;;;;686802;28;1907;-63
2023/10/15 00:16:41;;;;;;;5.03;2.15;;;;;;;;;;684311;28;22488;-62
2023/10/15 00:17:05;;;;;;;6.15;2.20;;;;;;;;;;684123;28;1962;-62
2023/10/15 00:17:27;;;;;;;7.55;2.40;;;;;;;;;;686606;28;23582;-61
2023/10/15 00:17:50;;;;;;;6.63;2.40;;;;;;;;;;689609;28;1144;-62
2023/10/15 00:18:11;;;;;;;6.60;2.28;;;;;;;;;;689052;28;4467;-62
2023/10/15 00:18:31;;;;;;;7.28;2.13;;;;;;;;;;691381;28;1287;-61
2023/10/15 00:18:51;;;;;;;5.43;2.13;;;;;;;;;;693677;28;1446;-62
2023/10/15 00:19:12;;;;;;;6.13;2.20;;;;;;;;;;689776;28;1913;-61
2023/10/15 00:19:32;;;;;;;6.38;2.33;;;;;;;;;;690018;28;1006;-62
2023/10/15 00:19:53;;;;;;;6.43;2.30;;;;;;;;;;690642;28;840;-63
2023/10/15 00:20:16;;;;;;;5.87;2.20;;;;;;;;;;688825;28;1151;-62
2023/10/15 00:20:40;;;;;;;5.95;2.40;;;;;;;;;;685860;28;24975;-62
2023/10/15 00:21:07;;;;;;;7.28;2.42;;;;;;;;;;685429;28;4794;-63
2023/10/15 00:21:28;;;;;;;5.57;2.55;;;;;;;;;;685211;28;70254;-63
2023/10/15 00:21:48;;;;;;;5.73;2.50;;;;;;;;;;688094;28;857;-62
2023/10/15 00:22:08;;;;;;;5.97;2.45;;;;;;;;;;687066;28;1516;-63
2023/10/15 00:22:30;;;;;;;6.70;2.35;;;;;;;;;;690593;28;1226;-61
2023/10/15 00:22:50;;;;;;;5.33;2.40;;;;;;;;;;693315;28;1302;-61
2023/10/15 00:23:13;;;;;;;5.38;2.50;;;;;;;;;;692532;28;2315;-62
2023/10/15 00:23:36;;;;;;;6.22;2.25;;;;;;;;;;694074;28;948;-63
2023/10/15 00:23:57;;;;;;;6.45;2.25;;;;;;;;;;693361;28;1380;-62
2023/10/15 00:24:17;;;;;;;6.25;2.22;;;;;;;;;;691507;28;4468;-61
2023/10/15 00:24:39;;;;;;;5.97;2.20;;;;;;;;;;694737;28;1549;-62
2023/10/15 00:25:00;;;;;;;7.38;2.40;;;;;;;;;;693652;28;844;-61
2023/10/15 00:25:20;;;;;;;6.40;2.40;;;;;;;;;;692176;28;2235;-62
2023/10/15 00:25:47;;;;;;;5.83;2.30;;;;;;;;;;692522;28;935;-62
2023/10/15 00:26:12;;;;;;;6.40;2.38;;;;;;;;;;690278;28;68839;-61
2023/10/15 00:26:35;;;;;;;6.88;2.30;;;;;;;;;;686862;28;72002;-61
2023/10/15 00:26:55;;;;;;;5.70;2.40;;;;;;;;;;687013;28;1221;-62
2023/10/15 00:27:20;;;;;;;6.30;2.40;;;;;;;;;;687398;28;5320;-61
2023/10/15 00:27:44;;;;;;;5.80;2.10;;;;;;;;;;686354;28;45535;-61
2023/10/15 00:28:05;;;;;;;6.35;2.28;;;;;;;;;;683779;28;24030;-61
2023/10/15 00:28:29;;;;;;;4.57;2.20;;;;;;;;;;683759;28;1169;-61
2023/10/15 00:28:49;;;;;;;5.95;2.20;;;;;;;;;;686729;28;6112;-61
2023/10/15 00:29:09;;;;;;;6.50;2.15;;;;;;;;;;687269;28;1855;-61
2023/10/15 00:29:29;;;;;;;5.73;2.30;;;;;;;;;;689045;28;1228;-62
2023/10/15 00:29:50;;;;;;;5.83;2.33;;;;;;;;;;685064;28;1347;-62
2023/10/15 00:30:13;;;;;;;7.50;2.40;;;;;;;;;;685069;28;4671;-61
2023/10/15 00:30:34;;;;;;;6.45;2.30;;;;;;;;;;688638;28;1475;-62
2023/10/15 00:30:54;;;;;;;5.80;2.35;;;;;;;;;;690169;28;931;-63
2023/10/15 00:31:14;;;;;;;6.40;2.30;;;;;;;;;;688609;28;1757;-62
2023/10/15 00:31:35;;;;;;;7.63;2.28;;;;;;;;;;691218;28;836;-62
2023/10/15 00:31:55;;;;;;;7.10;2.40;;;;;;;;;;691463;28;1426;-63
2023/10/15 00:32:15;;;;;;;6.53;2.50;;;;;;;;;;687833;28;1640;-61
2023/10/15 00:32:37;;;;;;;6.90;2.42;;;;;;;;;;687054;28;5894;-61
2023/10/15 00:32:58;;;;;;;6.13;2.10;;;;;;;;;;687164;28;943;-61
2023/10/15 00:33:18;;;;;;;7.07;2.40;;;;;;;;;;685030;28;4520;-61
2023/10/15 00:33:42;;;;;;;6.97;2.47;;;;;;;;;;688326;28;1186;-62
2023/10/15 00:34:03;;;;;;;6.28;2.60;;;;;;;;;;685932;28;1009;-63
2023/10/15 00:34:26;;;;;;;5.57;2.30;;;;;;;;;;688792;28;1314;-61
2023/10/15 00:34:49;;;;;;;6.05;2.28;;;;;;;;;;690571;28;880;-61
2023/10/15 00:35:10;;;;;;;6.38;2.33;;;;;;;;;;688051;28;1812;-63
2023/10/15 00:35:33;;;;;;;7.47;2.80;;;;;;;;;;689977;28;1328;-62
2023/10/15 00:35:54;;;;;;;8.68;2.75;;;;;;;;;;688818;28;2692;-62
2023/10/15 00:36:17;;;;;;;7.75;2.65;;;;;;;;;;688153;28;4465;-60
2023/10/15 00:36:38;;;;;;;5.35;2.50;;;;;;;;;;691377;28;1358;-62
2023/10/15 00:37:01;;;;;;;6.03;2.60;;;;;;;;;;688572;28;1907;-62
2023/10/15 00:37:22;;;;;;;6.85;2.60;;;;;;;;;;688424;28;1427;-63
2023/10/15 00:37:53;;;;;;;5.38;2.60;;;;;;;;;;689217;28;1038;-61
2023/10/15 00:38:16;;;;;;;6.03;2.45;;;;;;;;;;686975;28;68565;-62
2023/10/15 00:38:37;;;;;;;5.13;2.33;;;;;;;;;;690146;28;23045;-62
2023/10/15 00:38:57;;;;;;;6.67;2.40;;;;;;;;;;690717;28;1416;-62
2023/10/15 00:39:21;;;;;;;5.37;2.17;;;;;;;;;;689530;28;4521;-62
2023/10/15 00:39:41;;;;;;;5.38;2.20;;;;;;;;;;689692;28;24136;-63
2023/10/15 00:40:03;;;;;;;5.80;2.25;;;;;;;;;;689069;28;2250;-62
2023/10/15 00:40:25;;;;;;;6.00;2.13;;;;;;;;;;688963;28;2170;-62
2023/10/15 00:40:46;;;;;;;6.30;2.60;;;;;;;;;;688705;28;924;-61
2023/10/15 00:41:09;;;;;;;6.50;2.73;;;;;;;;;;688864;28;1429;-61
2023/10/15 00:41:29;;;;;;;5.35;2.25;;;;;;;;;;689951;28;22422;-61
2023/10/15 00:41:50;;;;;;;5.83;2.20;;;;;;;;;;692490;28;1185;-61
2023/10/15 00:42:10;;;;;;;6.50;2.50;;;;;;;;;;689016;28;4441;-61
2023/10/15 00:42:30;;;;;;;7.30;2.50;;;;;;;;;;691577;28;904;-62
2023/10/15 00:42:51;;;;;;;5.60;2.40;;;;;;;;;;691235;28;1215;-61
2023/10/15 00:43:17;;;;;;;5.65;2.33;;;;;;;;;;688649;28;1780;-63
2023/10/15 00:43:48;;;;;;;6.57;2.60;;;;;;;;;;685891;28;70435;-61
2023/10/15 00:44:09;;;;;;;8.45;3.00;;;;;;;;;;687374;28;69463;-62
2023/10/15 00:44:30;;;;;;;8.38;2.80;;;;;;;;;;688205;28;897;-62
2023/10/15 00:44:51;;;;;;;7.28;2.60;;;;;;;;;;691616;28;1593;-63
2023/10/15 00:45:14;;;;;;;7.38;2.90;;;;;;;;;;689598;28;4381;-62
2023/10/15 00:45:39;;;;;;;4.55;2.50;;;;;;;;;;690306;28;1341;-61
2023/10/15 00:46:00;;;;;;;5.25;2.20;;;;;;;;;;684079;28;46510;-62
2023/10/15 00:46:22;;;;;;;5.65;2.20;;;;;;;;;;685779;28;1249;-62
2023/10/15 00:46:45;;;;;;;5.07;2.30;;;;;;;;;;687623;28;1475;-62
2023/10/15 00:47:15;;;;;;;5.28;2.30;;;;;;;;;;685133;28;25125;-62
2023/10/15 00:47:35;;;;;;;4.47;2.20;;;;;;;;;;682088;28;69220;-62
2023/10/15 00:48:07;;;;;;;5.33;2.17;;;;;;;;;;683604;28;1239;-62
2023/10/15 00:48:33;;;;;;;7.18;2.40;;;;;;;;;;682185;28;90168;-63
2023/10/15 00:48:57;;;;;;;6.40;2.45;;;;;;;;;;683943;28;68897;-63
2023/10/15 00:49:17;;;;;;;6.30;2.40;;;;;;;;;;688659;28;24294;-63
2023/10/15 00:49:38;;;;;;;6.83;2.43;;;;;;;;;;690423;28;1230;-62
2023/10/15 00:49:59;;;;;;;6.78;2.80;;;;;;;;;;693996;28;923;-63
2023/10/15 00:50:20;;;;;;;6.03;2.25;;;;;;;;;;690715;28;2288;-62
2023/10/15 00:50:43;;;;;;;6.28;2.20;;;;;;;;;;693702;28;1489;-63
2023/10/15 00:51:09;;;;;;;5.75;2.30;;;;;;;;;;687792;28;4759;-62
2023/10/15 00:51:29;;;;;;;7.65;2.42;;;;;;;;;;689388;28;47069;-62
2023/10/15 00:51:49;;;;;;;5.88;2.50;;;;;;;;;;692376;28;1018;-62
2023/10/15 00:52:10;;;;;;;5.53;2.60;;;;;;;;;;689486;28;1029;-63
2023/10/15 00:52:30;;;;;;;5.78;2.50;;;;;;;;;;691192;28;916;-61
2023/10/15 00:52:51;;;;;;;5.80;2.20;;;;;;;;;;690515;28;1443;-63
2023/10/15 00:53:21;;;;;;;5.63;2.13;;;;;;;;;;691337;28;1946;-62
2023/10/15 00:53:49;;;;;;;6.88;2.40;;;;;;;;;;690310;28;69796;-62
2023/10/15 00:54:14;;;;;;;6.57;2.30;;;;;;;;;;687363;28;92053;-62
2023/10/15 00:54:34;;;;;;;7.68;2.60;;;;;;;;;;688337;28;48358;-62
2023/10/15 00:54:55;;;;;;;6.63;2.73;;;;;;;;;;690300;28;905;-62
2023/10/15 00:55:17;;;;;;;6.50;2.43;;;;;;;;;;690252;28;1160;-63
2023/10/15 00:55:42;;;;;;;6.47;2.40;;;;;;;;;;691161;28;1506;-62
2023/10/15 00:56:05;;;;;;;6.95;2.42;;;;;;;;;;685809;28;72554;-62
2023/10/15 00:56:26;;;;;;;5.38;2.45;;;;;;;;;;689697;28;1030;-62
2023/10/15 00:56:47;;;;;;;6.82;2.70;;;;;;;;;;690714;28;1981;-62
2023/10/15 00:57:41;;;;;;;6.18;2.53;;;;;;;;;;684314;28;4656;-62
2023/10/15 00:58:07;;;;;;;6.05;2.25;;;;;;;;;;686679;28;70660;-63
2023/10/15 00:59:08;;;;;;;5.80;2.50;;;;;;;;;;680717;28;69254;-62
2023/10/15 00:59:48;;;;;;;6.40;2.30;;;;;;;;;;681672;28;1078;-62
2023/10/15 01:00:39;;;;;;;5.68;2.45;;;;;;;;;;679609;28;71231;-62
2023/10/15 01:01:00;;;;;;;6.43;2.70;;;;;;;;;;684844;28;69482;-62
2023/10/15 01:01:26;;;;;;;5.15;2.50;;;;;;;;;;688444;28;1791;-63
2023/10/15 01:02:05;;;;;;;7.18;2.70;;;;;;;;;;686298;28;73533;-62
2023/10/15 01:02:28;;;;;;;8.32;3.20;;;;;;;;;;685180;28;72938;-63
2023/10/15 01:02:48;;;;;;;5.70;2.80;;;;;;;;;;683928;28;996;-61
2023/10/15 01:03:09;;;;;;;6.30;2.80;;;;;;;;;;683271;28;4424;-63
2023/10/15 01:03:32;;;;;;;6.20;2.80;;;;;;;;;;686427;28;947;-62
2023/10/15 01:03:56;;;;;;;7.68;3.17;;;;;;;;;;687791;28;25109;-62
2023/10/15 01:04:17;;;;;;;8.00;3.30;;;;;;;;;;686664;28;23138;-62
2023/10/15 01:04:37;;;;;;;7.87;2.90;;;;;;;;;;688612;28;855;-62
2023/10/15 01:05:00;;;;;;;7.50;3.22;;;;;;;;;;694539;28;867;-61
2023/10/15 01:05:20;;;;;;;7.50;3.55;;;;;;;;;;693373;28;2029;-62
2023/10/15 01:05:53;;;;;;;6.80;3.27;;;;;;;;;;690268;28;1413;-62
2023/10/15 01:06:13;;;;;;;11.63;3.65;;;;;;;;;;684935;28;69757;-62
2023/10/15 01:07:00;;;;;;;6.75;3.25;;;;;;;;;;687101;28;1085;-63
2023/10/15 01:07:32;;;;;;;8.38;3.50;;;;;;;;;;683328;28;69789;-63
2023/10/15 01:07:54;;;;;;;7.45;3.53;;;;;;;;;;686537;28;71078;-60
2023/10/15 01:08:16;;;;;;;8.80;3.85;;;;;;;;;;689270;28;1761;-62
2023/10/15 01:08:38;;;;;;;8.30;3.97;;;;;;;;;;692415;28;959;-63
2023/10/15 01:09:08;;;;;;;7.63;3.83;;;;;;;;;;693602;28;4379;-61
2023/10/15 01:09:29;;;;;;;9.32;3.80;;;;;;;;;;691068;28;68496;-62
2023/10/15 01:09:49;;;;;;;9.80;3.90;;;;;;;;;;692942;28;962;-60
2023/10/15 01:10:18;;;;;;;9.20;3.88;;;;;;;;;;690507;28;1697;-61
2023/10/15 01:10:39;;;;;;;8.50;4.00;;;;;;;;;;688488;28;69602;-60
2023/10/15 01:11:10;;;;;;;10.15;4.13;;;;;;;;;;690647;28;1196;-61
2023/10/15 01:11:30;;;;;;;8.80;3.75;;;;;;;;;;684570;28;72287;-61
2023/10/15 01:11:51;;;;;;;8.67;3.70;;;;;;;;;;687907;28;825;-61
2023/10/15 01:12:28;;;;;;;7.88;3.47;;;;;;;;;;682401;28;4845;-61
2023/10/15 01:12:48;;;;;;;6.22;3.40;;;;;;;;;;686989;28;69115;-62
2023/10/15 01:13:30;;;;;;;7.87;3.77;;;;;;;;;;686743;28;1757;-61
2023/10/15 01:13:50;;;;;;;7.25;3.20;;;;;;;;;;691081;28;69691;-62
2023/10/15 01:14:11;;;;;;;6.57;3.37;;;;;;;;;;685811;28;1469;-62
2023/10/15 01:14:31;;;;;;;5.78;2.78;;;;;;;;;;689679;28;1093;-62
2023/10/15 01:14:52;;;;;;;8.88;3.22;;;;;;;;;;685817;28;1386;-62
2023/10/15 01:15:12;;;;;;;7.57;3.30;;;;;;;;;;684129;28;4614;-61
2023/10/15 01:15:35;;;;;;;5.75;3.10;;;;;;;;;;686053;28;1350;-62
2023/10/15 01:16:02;;;;;;;6.75;2.88;;;;;;;;;;685087;28;1294;-61
2023/10/15 01:16:23;;;;;;;6.53;2.80;;;;;;;;;;687756;28;69919;-60
2023/10/15 01:16:43;;;;;;;6.15;2.65;;;;;;;;;;690420;28;1243;-62
2023/10/15 01:17:05;;;;;;;6.57;2.60;;;;;;;;;;688918;28;1910;-63
2023/10/15 01:17:26;;;;;;;6.78;2.65;;;;;;;;;;692644;28;1008;-62
2023/10/15 01:17:50;;;;;;;6.47;2.80;;;;;;;;;;694233;28;1249;-61
2023/10/15 01:18:13;;;;;;;7.25;2.60;;;;;;;;;;689391;28;70379;-63
2023/10/15 01:18:33;;;;;;;6.78;2.50;;;;;;;;;;691215;28;1270;-61
2023/10/15 01:19:33;;;;;;;6.78;2.70;;;;;;;;;;688808;28;69628;-62
2023/10/15 01:19:53;;;;;;;4.63;2.50;;;;;;;;;;691153;28;887;-61
2023/10/15 01:20:18;;;;;;;6.35;2.47;;;;;;;;;;686333;28;1589;-61
2023/10/15 01:20:42;;;;;;;6.68;2.30;;;;;;;;;;688415;28;47109;-61
2023/10/15 01:21:05;;;;;;;6.10;2.47;;;;;;;;;;688441;28;23396;-62
2023/10/15 01:21:29;;;;;;;7.25;2.50;;;;;;;;;;689566;28;981;-61
2023/10/15 01:21:53;;;;;;;6.82;2.60;;;;;;;;;;690182;28;22797;-62
2023/10/15 01:22:18;;;;;;;5.97;2.60;;;;;;;;;;688262;28;25493;-62
2023/10/15 01:22:39;;;;;;;7.10;2.78;;;;;;;;;;687755;28;45894;-62
2023/10/15 01:22:59;;;;;;;6.82;2.40;;;;;;;;;;690272;28;1427;-60
2023/10/15 01:23:28;;;;;;;5.80;2.37;;;;;;;;;;689149;28;1145;-61
2023/10/15 01:24:04;;;;;;;5.35;2.40;;;;;;;;;;685793;28;69646;-61
2023/10/15 01:24:28;;;;;;;6.20;2.35;;;;;;;;;;688219;28;89184;-61
2023/10/15 01:24:50;;;;;;;6.47;2.53;;;;;;;;;;690826;28;1011;-61
2023/10/15 01:25:24;;;;;;;5.82;2.47;;;;;;;;;;685921;28;1806;-61
2023/10/15 01:25:48;;;;;;;7.22;2.40;;;;;;;;;;681965;28;71942;-61
2023/10/15 01:26:25;;;;;;;5.78;2.45;;;;;;;;;;682690;28;23184;-62
2023/10/15 01:27:39;;;;;;;5.63;2.47;;;;;;;;;;682953;28;90170;-61
2023/10/15 01:28:00;;;;;;;6.23;2.40;;;;;;;;;;686767;28;1489;-62
2023/10/15 01:28:22;;;;;;;6.35;2.40;;;;;;;;;;686041;28;1601;-61
2023/10/15 01:28:45;;;;;;;5.97;2.22;;;;;;;;;;684819;28;6562;-62
2023/10/15 01:29:06;;;;;;;6.70;2.20;;;;;;;;;;682777;28;2432;-61
2023/10/15 01:29:27;;;;;;;5.63;2.70;;;;;;;;;;683918;28;1570;-61
2023/10/15 01:29:48;;;;;;;5.80;2.65;;;;;;;;;;684198;28;1254;-63
2023/10/15 01:30:09;;;;;;;5.10;2.70;;;;;;;;;;680390;28;4503;-61
2023/10/15 01:30:35;;;;;;;6.30;2.60;;;;;;;;;;680621;28;1069;-62
2023/10/15 01:31:00;;;;;;;5.57;2.45;;;;;;;;;;682909;28;45994;-61
2023/10/15 01:31:24;;;;;;;5.30;2.40;;;;;;;;;;683757;28;68718;-63
2023/10/15 01:31:50;;;;;;;5.97;2.50;;;;;;;;;;687781;28;1307;-62
2023/10/15 01:32:25;;;;;;;5.95;2.60;;;;;;;;;;686683;28;69738;-61
2023/10/15 01:32:45;;;;;;;5.45;2.40;;;;;;;;;;689910;28;68360;-62
2023/10/15 01:33:10;;;;;;;5.90;2.40;;;;;;;;;;690470;28;4352;-61
2023/10/15 01:33:36;;;;;;;5.13;2.20;;;;;;;;;;685857;28;72290;-61
2023/10/15 01:33:57;;;;;;;6.28;2.20;;;;;;;;;;684489;28;49877;-62
2023/10/15 01:34:21;;;;;;;5.87;2.30;;;;;;;;;;684958;28;1781;-61
2023/10/15 01:34:44;;;;;;;6.65;2.50;;;;;;;;;;684418;28;25273;-59
2023/10/15 01:35:10;;;;;;;6.07;2.40;;;;;;;;;;683156;28;23132;-62
2023/10/15 01:35:30;;;;;;;6.25;2.70;;;;;;;;;;686325;28;72467;-61
2023/10/15 01:35:51;;;;;;;5.20;2.53;;;;;;;;;;691375;28;911;-61
2023/10/15 01:36:18;;;;;;;6.03;2.20;;;;;;;;;;683545;28;4455;-62
2023/10/15 01:36:38;;;;;;;5.68;2.70;;;;;;;;;;680126;28;69490;-61
2023/10/15 01:36:59;;;;;;;6.67;2.50;;;;;;;;;;683409;28;1969;-61
2023/10/15 01:37:57;;;;;;;5.70;2.30;;;;;;;;;;683877;28;48351;-62
2023/10/15 01:38:26;;;;;;;4.80;2.40;;;;;;;;;;682938;28;70163;-62
2023/10/15 01:38:54;;;;;;;7.47;2.70;;;;;;;;;;688670;28;69782;-62
2023/10/15 01:39:21;;;;;;;6.05;2.45;;;;;;;;;;685903;28;72087;-63
2023/10/15 01:39:47;;;;;;;8.23;3.00;;;;;;;;;;685344;28;70600;-61
2023/10/15 01:40:37;;;;;;;6.40;2.72;;;;;;;;;;686308;28;1453;-60
2023/10/15 01:40:58;;;;;;;4.97;2.45;;;;;;;;;;682255;28;69041;-60
2023/10/15 01:41:19;;;;;;;5.75;2.47;;;;;;;;;;684062;28;1851;-60
2023/10/15 01:41:39;;;;;;;7.97;2.78;;;;;;;;;;682384;28;936;-59
2023/10/15 01:42:04;;;;;;;9.23;2.93;;;;;;;;;;683332;28;4501;-62
2023/10/15 01:42:53;;;;;;;7.13;2.90;;;;;;;;;;684599;28;945;-62
2023/10/15 01:43:14;;;;;;;5.78;2.60;;;;;;;;;;682888;28;72354;-62
2023/10/15 01:43:35;;;;;;;6.03;2.85;;;;;;;;;;688612;28;1298;-62
2023/10/15 01:44:01;;;;;;;5.90;2.70;;;;;;;;;;687395;28;1710;-62
2023/10/15 01:44:21;;;;;;;6.63;2.50;;;;;;;;;;683293;28;70294;-63
2023/10/15 01:44:47;;;;;;;6.07;2.43;;;;;;;;;;686854;28;912;-62
2023/10/15 01:45:37;;;;;;;6.20;2.90;;;;;;;;;;691231;28;23477;-62
2023/10/15 01:45:58;;;;;;;5.57;2.85;;;;;;;;;;688982;28;69944;-62
2023/10/15 01:47:34;;;;;;;7.20;3.08;;;;;;;;;;685336;28;69798;-63
2023/10/15 01:48:04;;;;;;;6.28;3.13;;;;;;;;;;684700;28;69688;-62
2023/10/15 01:48:24;;;;;;;6.63;2.97;;;;;;;;;;679891;28;88575;-61
2023/10/15 01:48:45;;;;;;;8.13;2.93;;;;;;;;;;682812;28;1227;-62
2023/10/15 01:49:06;;;;;;;7.47;2.90;;;;;;;;;;685132;28;900;-62
2023/10/15 01:49:33;;;;;;;7.22;2.83;;;;;;;;;;683669;28;876;-61
2023/10/15 01:49:56;;;;;;;6.53;3.17;;;;;;;;;;684310;28;92675;-63
2023/10/15 01:51:04;;;;;;;6.07;3.20;;;;;;;;;;685903;28;1463;-61
2023/10/15 01:51:06;;;;;;;5.40;2.80;;;;;;;;;;681890;28;68233;-63
2023/10/15 01:51:29;;;;;;;6.55;3.20;;;;;;;;;;685518;28;89643;-62
2023/10/15 01:51:53;;;;;;;6.13;2.80;;;;;;;;;;690337;28;822;-63
2023/10/15 01:52:13;;;;;;;5.57;2.92;;;;;;;;;;687939;28;24904;-61
2023/10/15 01:52:39;;;;;;;5.43;2.90;;;;;;;;;;691644;28;928;-62
2023/10/15 01:53:04;;;;;;;6.43;3.00;;;;;;;;;;683288;28;71210;-63
2023/10/15 01:53:24;;;;;;;6.50;2.95;;;;;;;;;;684543;28;22389;-62
2023/10/15 01:53:45;;;;;;;5.93;2.57;;;;;;;;;;686470;28;816;-61
2023/10/15 01:54:09;;;;;;;5.88;2.90;;;;;;;;;;687102;28;4468;-63
2023/10/15 01:54:31;;;;;;;5.75;3.00;;;;;;;;;;685603;28;46846;-62
2023/10/15 01:54:53;;;;;;;6.47;2.80;;;;;;;;;;688327;28;1216;-62
2023/10/15 01:55:13;;;;;;;4.93;2.70;;;;;;;;;;689326;28;1799;-62
2023/10/15 01:55:35;;;;;;;6.07;2.77;;;;;;;;;;688740;28;984;-62
2023/10/15 01:55:56;;;;;;;7.47;2.90;;;;;;;;;;688395;28;1254;-63
2023/10/15 01:56:19;;;;;;;7.65;2.90;;;;;;;;;;687733;28;1763;-62
2023/10/15 01:56:39;;;;;;;7.05;2.95;;;;;;;;;;687979;28;872;-62
2023/10/15 01:57:01;;;;;;;6.53;2.78;;;;;;;;;;688327;28;4725;-62
2023/10/15 01:57:22;;;;;;;6.78;2.70;;;;;;;;;;687952;28;1951;-62
2023/10/15 01:57:43;;;;;;;6.20;2.80;;;;;;;;;;685782;28;1450;-62
2023/10/15 01:58:04;;;;;;;6.15;2.92;;;;;;;;;;687206;28;1515;-61
2023/10/15 01:58:30;;;;;;;5.93;3.20;;;;;;;;;;682809;28;1710;-62
2023/10/15 01:58:52;;;;;;;6.07;2.80;;;;;;;;;;682141;28;72068;-61
2023/10/15 01:59:12;;;;;;;5.95;2.60;;;;;;;;;;683005;28;2183;-62
2023/10/15 01:59:44;;;;;;;8.02;2.72;;;;;;;;;;683614;28;1289;-61
2023/10/15 02:00:12;;;;;;;7.78;3.20;;;;;;;;;;681190;28;94901;-62
2023/10/15 02:00:54;;;;;;;7.20;2.75;;;;;;;;;;686629;28;34668;-63
2023/10/15 02:01:20;;;;;;;5.78;2.50;;;;;;;;;;686371;28;69816;-63
2023/10/15 02:01:41;;;;;;;6.32;2.70;;;;;;;;;;688318;28;69045;-63
2023/10/15 02:02:01;;;;;;;6.10;2.60;;;;;;;;;;692308;28;951;-62
2023/10/15 02:02:23;;;;;;;5.87;2.60;;;;;;;;;;693632;28;2189;-61
2023/10/15 02:02:47;;;;;;;6.95;2.85;;;;;;;;;;691486;28;1036;-62
2023/10/15 02:03:10;;;;;;;6.47;2.80;;;;;;;;;;688590;28;23103;-61
2023/10/15 02:03:31;;;;;;;5.85;2.60;;;;;;;;;;690611;28;1046;-61
2023/10/15 02:03:52;;;;;;;6.30;2.85;;;;;;;;;;688871;28;935;-62
2023/10/15 02:04:17;;;;;;;7.50;2.70;;;;;;;;;;688155;28;1852;-61
2023/10/15 02:04:44;;;;;;;7.35;2.80;;;;;;;;;;688168;28;70130;-61
2023/10/15 02:05:16;;;;;;;5.72;2.35;;;;;;;;;;684793;28;72268;-62
2023/10/15 02:05:44;;;;;;;6.60;2.80;;;;;;;;;;683164;28;72092;-62
2023/10/15 02:06:06;;;;;;;7.10;2.55;;;;;;;;;;683256;28;72127;-63
2023/10/15 02:06:26;;;;;;;6.95;2.70;;;;;;;;;;684548;28;1401;-62
2023/10/15 02:06:46;;;;;;;6.67;2.70;;;;;;;;;;682074;28;1176;-61
2023/10/15 02:07:07;;;;;;;6.25;2.40;;;;;;;;;;682876;28;2295;-62
2023/10/15 02:07:30;;;;;;;6.47;2.60;;;;;;;;;;685161;28;961;-60
2023/10/15 02:07:51;;;;;;;5.72;2.90;;;;;;;;;;683157;28;24999;-62
2023/10/15 02:08:36;;;;;;;5.22;2.60;;;;;;;;;;683770;28;1781;-63
2023/10/15 02:08:57;;;;;;;6.18;2.70;;;;;;;;;;686184;28;68558;-60
2023/10/15 02:09:24;;;;;;;5.55;2.50;;;;;;;;;;687933;28;4368;-61
2023/10/15 02:09:45;;;;;;;5.18;2.40;;;;;;;;;;685280;28;70287;-63
2023/10/15 02:10:05;;;;;;;5.57;2.40;;;;;;;;;;688186;28;1279;-61
2023/10/15 02:10:28;;;;;;;6.30;2.40;;;;;;;;;;688380;28;1953;-62
2023/10/15 02:10:49;;;;;;;5.80;2.38;;;;;;;;;;688108;28;1269;-62
2023/10/15 02:11:11;;;;;;;5.68;2.25;;;;;;;;;;687299;28;1704;-60
2023/10/15 02:11:35;;;;;;;7.88;2.47;;;;;;;;;;683965;28;934;-60
2023/10/15 02:11:56;;;;;;;7.93;2.47;;;;;;;;;;688014;28;22869;-62
2023/10/15 02:12:20;;;;;;;7.03;2.38;;;;;;;;;;689785;28;4368;-62
2023/10/15 02:12:40;;;;;;;6.70;2.47;;;;;;;;;;689720;28;24176;-61
2023/10/15 02:13:04;;;;;;;6.73;2.87;;;;;;;;;;690965;28;1533;-61
2023/10/15 02:13:26;;;;;;;7.03;2.38;;;;;;;;;;685886;28;26950;-60
2023/10/15 02:13:47;;;;;;;5.85;2.60;;;;;;;;;;689498;28;1414;-59
2023/10/15 02:14:09;;;;;;;5.05;2.40;;;;;;;;;;687361;28;2762;-60
2023/10/15 02:14:30;;;;;;;5.97;2.45;;;;;;;;;;686618;28;1485;-60
2023/10/15 02:14:51;;;;;;;7.13;2.63;;;;;;;;;;685309;28;988;-62
2023/10/15 02:15:22;;;;;;;6.13;2.42;;;;;;;;;;685210;28;4629;-60
2023/10/15 02:15:43;;;;;;;6.07;2.55;;;;;;;;;;689015;28;69585;-61
2023/10/15 02:16:09;;;;;;;7.03;2.60;;;;;;;;;;689480;28;1021;-61
2023/10/15 02:16:32;;;;;;;6.38;2.40;;;;;;;;;;689289;28;69663;-62
2023/10/15 02:16:54;;;;;;;7.00;2.20;;;;;;;;;;691488;28;22972;-60
2023/10/15 02:17:14;;;;;;;6.28;2.55;;;;;;;;;;692839;28;2292;-60
2023/10/15 02:17:35;;;;;;;7.63;2.63;;;;;;;;;;691014;28;1683;-60
2023/10/15 02:17:55;;;;;;;6.40;2.33;;;;;;;;;;687427;28;1415;-60
2023/10/15 02:18:18;;;;;;;6.93;2.40;;;;;;;;;;680446;28;4459;-60
2023/10/15 02:18:39;;;;;;;6.05;2.38;;;;;;;;;;682348;28;26489;-60
2023/10/15 02:18:59;;;;;;;4.10;2.10;;;;;;;;;;683110;28;1189;-59
2023/10/15 02:19:55;;;;;;;4.85;2.30;;;;;;;;;;682896;28;69451;-60
2023/10/15 02:20:26;;;;;;;5.00;2.20;;;;;;;;;;684708;28;1602;-59
2023/10/15 02:21:00;;;;;;;6.05;2.33;;;;;;;;;;684657;28;70394;-62
2023/10/15 02:21:20;;;;;;;5.72;2.10;;;;;;;;;;678359;28;89439;-59
2023/10/15 02:21:49;;;;;;;7.37;2.30;;;;;;;;;;682698;28;1194;-60
2023/10/15 02:22:13;;;;;;;4.13;2.10;;;;;;;;;;682129;28;72295;-62
2023/10/15 02:22:38;;;;;;;5.13;2.10;;;;;;;;;;685795;28;2424;-61
2023/10/15 02:22:58;;;;;;;5.57;2.25;;;;;;;;;;684787;28;46903;-61
2023/10/15 02:23:19;;;;;;;5.43;2.30;;;;;;;;;;684487;28;1796;-62
2023/10/15 02:23:48;;;;;;;5.95;2.38;;;;;;;;;;685762;28;1079;-61
2023/10/15 02:24:09;;;;;;;5.38;2.40;;;;;;;;;;684986;28;69868;-62
2023/10/15 02:24:34;;;;;;;4.53;2.13;;;;;;;;;;688327;28;1002;-62
2023/10/15 02:24:56;;;;;;;4.95;2.30;;;;;;;;;;685533;28;45936;-62
2023/10/15 02:25:16;;;;;;;5.65;2.40;;;;;;;;;;689349;28;1712;-63
2023/10/15 02:25:44;;;;;;;6.75;2.47;;;;;;;;;;689618;28;1292;-61
2023/10/15 02:26:05;;;;;;;5.10;2.30;;;;;;;;;;689601;28;68530;-60
2023/10/15 02:26:31;;;;;;;5.40;2.23;;;;;;;;;;689462;28;1507;-60
2023/10/15 02:26:51;;;;;;;6.93;2.55;;;;;;;;;;686115;28;69507;-59
2023/10/15 02:27:18;;;;;;;6.83;2.40;;;;;;;;;;684712;28;4430;-59
2023/10/15 02:27:38;;;;;;;4.97;2.10;;;;;;;;;;684072;28;71194;-61
2023/10/15 02:27:58;;;;;;;6.63;2.13;;;;;;;;;;688010;28;1198;-60
2023/10/15 02:28:39;;;;;;;6.10;2.37;;;;;;;;;;685693;28;1900;-59
2023/10/15 02:29:07;;;;;;;6.13;2.10;;;;;;;;;;687869;28;69527;-61